createdAt,value
2022-08-14T00:02:01.442Z,3.22
2022-08-14T00:04:34.249Z,3.20
2022-08-14T00:07:04.815Z,3.10
2022-08-14T00:09:55.900Z,3.50
2022-08-14T00:12:24.769Z,3.30
2022-08-14T00:15:04.150Z,3.60
2022-08-14T00:17:38.104Z,3.30
2022-08-14T00:20:15.830Z,3.22
2022-08-14T00:22:57.517Z,3.50
2022-08-14T00:25:30.523Z,3.60
2022-08-14T00:28:15.080Z,3.38
2022-08-14T00:30:47.640Z,3.53
2022-08-14T00:33:16.580Z,3.20
2022-08-14T00:36:39.042Z,3.10
2022-08-14T00:38:34.755Z,3.45
2022-08-14T00:41:03.725Z,3.40
2022-08-14T00:43:32.521Z,3.10
2022-08-14T00:46:08.333Z,3.35
2022-08-14T00:48:53.900Z,3.28
2022-08-14T00:51:22.806Z,3.45
2022-08-14T00:53:51.400Z,3.70
2022-08-14T00:56:21.482Z,3.60
2022-08-14T00:58:49.747Z,3.50
2022-08-14T01:01:21.506Z,3.85
2022-08-14T01:03:53.025Z,4.10
2022-08-14T01:06:21.378Z,3.53
2022-08-14T01:08:51.649Z,3.70
2022-08-14T01:11:35.365Z,3.67
2022-08-14T01:14:25.937Z,3.10
2022-08-14T01:16:55.425Z,3.80
2022-08-14T01:19:41.614Z,3.45
2022-08-14T01:22:12.373Z,3.90
2022-08-14T01:24:43.593Z,3.92
2022-08-14T01:27:16.073Z,3.65
2022-08-14T01:30:00.719Z,3.88
2022-08-14T01:32:42.513Z,3.63
2022-08-14T01:35:18.333Z,4.00
2022-08-14T01:38:00.766Z,4.03
2022-08-14T01:40:33.003Z,4.03
2022-08-14T01:43:05.009Z,4.07
2022-08-14T01:45:40.211Z,4.25
2022-08-14T01:48:13.966Z,3.72
2022-08-14T01:50:44.216Z,3.70
2022-08-14T01:53:14.636Z,4.60
2022-08-14T01:55:42.808Z,4.18
2022-08-14T01:58:20.107Z,4.10
2022-08-14T02:00:58.542Z,3.70
2022-08-14T02:03:30.994Z,3.97
2022-08-14T02:06:03.643Z,4.15
2022-08-14T02:08:53.048Z,4.32
2022-08-14T02:11:24.101Z,4.28
2022-08-14T02:13:59.657Z,4.00
2022-08-14T02:16:39.250Z,4.22
2022-08-14T02:19:09.898Z,4.43
2022-08-14T02:21:46.997Z,4.30
2022-08-14T02:24:39.367Z,4.10
2022-08-14T02:28:23.242Z,4.70
2022-08-14T02:30:01.206Z,4.20
2022-08-14T02:32:44.608Z,4.70
2022-08-14T02:35:18.014Z,4.35
2022-08-14T02:37:48.310Z,4.18
2022-08-14T02:40:19.090Z,4.50
2022-08-14T02:42:55.180Z,4.80
2022-08-14T02:45:33.578Z,4.28
2022-08-14T02:48:10.121Z,4.45
2022-08-14T02:50:56.839Z,4.50
2022-08-14T02:53:29.254Z,4.75
2022-08-14T02:56:02.499Z,4.53
2022-08-14T02:58:32.844Z,4.90
2022-08-14T03:01:01.802Z,5.00
2022-08-14T03:03:31.801Z,4.70
2022-08-14T03:06:03.368Z,4.90
2022-08-14T03:08:33.275Z,5.35
2022-08-14T03:11:07.644Z,5.10
2022-08-14T03:13:37.575Z,5.13
2022-08-14T03:16:09.076Z,5.40
2022-08-14T03:18:41.570Z,5.50
2022-08-14T03:21:13.385Z,5.10
2022-08-14T03:23:42.289Z,5.80
2022-08-14T03:26:18.149Z,5.97
2022-08-14T03:28:57.120Z,6.28
2022-08-14T03:31:30.095Z,5.65
2022-08-14T03:33:59.809Z,6.28
2022-08-14T03:37:39.445Z,6.57
2022-08-14T03:39:22.894Z,6.32
2022-08-14T03:41:55.641Z,5.90
2022-08-14T03:45:18.579Z,6.22
2022-08-14T03:47:12.123Z,6.43
2022-08-14T03:49:42.399Z,6.22
2022-08-14T03:52:17.989Z,6.40
2022-08-14T03:54:59.814Z,6.57
2022-08-14T03:57:32.960Z,6.05
2022-08-14T04:00:08.926Z,6.05
2022-08-14T04:02:46.982Z,6.53
2022-08-14T04:05:16.575Z,6.50
2022-08-14T04:08:00.106Z,6.90
2022-08-14T04:10:33.269Z,6.25
2022-08-14T04:13:04.508Z,6.70
2022-08-14T04:15:55.788Z,6.93
2022-08-14T04:18:21.084Z,7.05
2022-08-14T04:20:54.145Z,7.38
2022-08-14T04:23:29.066Z,6.60
2022-08-14T04:25:58.026Z,6.38
2022-08-14T04:29:07.497Z,6.85
2022-08-14T04:31:15.272Z,7.03
2022-08-14T04:33:43.904Z,6.47
2022-08-14T04:36:15.861Z,7.00
2022-08-14T04:39:05.529Z,6.80
2022-08-14T04:41:53.376Z,6.40
2022-08-14T04:44:26.619Z,6.45
2022-08-14T04:47:18.779Z,6.25
2022-08-14T04:49:56.873Z,6.63
2022-08-14T04:52:25.794Z,6.50
2022-08-14T04:54:54.694Z,7.10
2022-08-14T04:57:23.279Z,6.68
2022-08-14T04:59:53.174Z,6.93
2022-08-14T05:02:27.334Z,6.68
2022-08-14T05:04:57.266Z,7.00
2022-08-14T05:07:33.930Z,7.03
2022-08-14T05:10:16.743Z,7.03
2022-08-14T05:13:13.018Z,6.95
2022-08-14T05:15:41.586Z,7.18
2022-08-14T05:18:17.752Z,7.63
2022-08-14T05:21:54.827Z,8.73
2022-08-14T05:23:53.840Z,7.78
2022-08-14T05:26:23.326Z,8.38
2022-08-14T05:28:51.490Z,9.52
2022-08-14T05:31:21.337Z,8.82
2022-08-14T05:33:56.805Z,8.18
2022-08-14T05:36:27.079Z,7.85
2022-08-14T05:38:55.388Z,9.20
2022-08-14T05:41:23.699Z,9.25
2022-08-14T05:44:12.064Z,8.82
2022-08-14T05:46:41.379Z,9.27
2022-08-14T05:49:10.796Z,9.45
2022-08-14T05:51:41.166Z,9.38
2022-08-14T05:54:13.533Z,9.90
2022-08-14T05:56:48.093Z,11.10
2022-08-14T05:59:16.735Z,11.82
2022-08-14T06:01:46.175Z,11.93
2022-08-14T06:04:14.560Z,11.63
2022-08-14T06:06:43.601Z,12.07
2022-08-14T06:09:11.438Z,12.25
2022-08-14T06:11:39.720Z,12.20
2022-08-14T06:14:12.371Z,12.30
2022-08-14T06:16:50.058Z,11.77
2022-08-14T06:19:20.974Z,11.90
2022-08-14T06:21:58.381Z,11.77
2022-08-14T06:24:30.731Z,12.07
2022-08-14T06:27:04.486Z,12.07
2022-08-14T06:29:35.090Z,12.45
2022-08-14T06:32:38.600Z,12.35
2022-08-14T06:35:03.878Z,13.77
2022-08-14T06:37:43.791Z,13.50
2022-08-14T06:40:25.729Z,12.20
2022-08-14T06:43:00.212Z,12.50
2022-08-14T06:45:31.745Z,13.27
2022-08-14T06:48:01.541Z,12.77
2022-08-14T06:50:31.651Z,13.20
2022-08-14T06:53:01.969Z,11.88
2022-08-14T06:55:29.848Z,11.98
2022-08-14T06:57:58.274Z,12.18
2022-08-14T07:00:30.757Z,12.23
2022-08-14T07:03:19.308Z,11.65
2022-08-14T07:05:55.301Z,11.65
2022-08-14T07:08:29.595Z,11.43
2022-08-14T07:11:01.547Z,11.45
2022-08-14T07:13:30.987Z,10.75
2022-08-14T07:16:00.659Z,10.98
2022-08-14T07:18:31.815Z,11.10
2022-08-14T07:21:01.143Z,10.73
2022-08-14T07:23:30.246Z,10.98
2022-08-14T07:26:00.570Z,11.40
2022-08-14T07:28:33.083Z,11.15
2022-08-14T07:31:04.383Z,10.90
2022-08-14T07:33:41.897Z,10.55
2022-08-14T07:36:27.528Z,10.38
2022-08-14T07:38:59.137Z,10.60
2022-08-14T07:41:33.483Z,9.13
2022-08-14T07:44:29.635Z,9.27
2022-08-14T07:46:50.777Z,9.57
2022-08-14T07:49:20.946Z,10.13
2022-08-14T07:51:52.320Z,9.55
2022-08-14T07:54:23.681Z,9.43
2022-08-14T07:57:06.428Z,9.57
2022-08-14T07:59:44.135Z,9.07
2022-08-14T08:02:18.087Z,8.73
2022-08-14T08:04:54.889Z,7.75
2022-08-14T08:07:24.115Z,8.10
2022-08-14T08:09:56.922Z,7.80
2022-08-14T08:12:30.091Z,7.20
2022-08-14T08:15:05.922Z,8.10
2022-08-14T08:17:38.743Z,7.47
2022-08-14T08:20:20.061Z,7.40
2022-08-14T08:22:49.856Z,7.32
2022-08-14T08:25:24.042Z,7.65
2022-08-14T08:28:08.193Z,7.80
2022-08-14T08:30:49.509Z,7.63
2022-08-14T08:33:19.304Z,7.47
2022-08-14T08:35:50.712Z,6.95
2022-08-14T08:39:17.001Z,7.60
2022-08-14T08:41:11.045Z,7.40
2022-08-14T08:43:45.803Z,6.90
2022-08-14T08:46:21.137Z,7.32
2022-08-14T08:48:53.733Z,6.80
2022-08-14T08:51:33.401Z,6.45
2022-08-14T08:54:04.889Z,6.70
2022-08-14T08:56:42.023Z,6.30
2022-08-14T08:59:21.830Z,6.10
2022-08-14T09:01:56.421Z,6.65
2022-08-14T09:04:26.410Z,6.20
2022-08-14T09:07:09.444Z,5.93
2022-08-14T09:09:54.360Z,6.95
2022-08-14T09:12:32.245Z,6.50
2022-08-14T09:15:02.223Z,5.95
2022-08-14T09:17:30.278Z,6.32
2022-08-14T09:20:02.191Z,6.35
2022-08-14T09:22:36.678Z,6.20
2022-08-14T09:25:15.886Z,6.30
2022-08-14T09:27:44.001Z,6.72
2022-08-14T09:30:32.374Z,6.82
2022-08-14T09:33:23.757Z,7.03
2022-08-14T09:36:04.251Z,6.72
2022-08-14T09:38:48.039Z,6.10
2022-08-14T09:42:20.119Z,6.18
2022-08-14T09:44:34.779Z,6.13
2022-08-14T09:47:03.218Z,6.55
2022-08-14T09:49:39.813Z,6.55
2022-08-14T09:52:32.666Z,6.88
2022-08-14T09:55:00.650Z,6.32
2022-08-14T09:57:31.443Z,6.80
2022-08-14T10:00:11.961Z,6.10
2022-08-14T10:03:00.512Z,5.75
2022-08-14T10:05:35.084Z,5.90
2022-08-14T10:08:25.324Z,5.75
2022-08-14T10:10:57.330Z,5.85
2022-08-14T10:13:42.918Z,6.10
2022-08-14T10:16:25.606Z,6.53
2022-08-14T10:19:04.565Z,5.55
2022-08-14T10:21:38.977Z,5.57
2022-08-14T10:24:37.035Z,5.45
2022-08-14T10:27:18.435Z,5.28
2022-08-14T10:29:51.136Z,5.05
2022-08-14T10:32:28.818Z,5.10
2022-08-14T10:35:13.776Z,5.60
2022-08-14T10:37:46.463Z,4.97
2022-08-14T10:40:37.433Z,5.53
2022-08-14T10:43:17.973Z,5.35
2022-08-14T10:45:59.707Z,4.97
2022-08-14T10:48:38.173Z,5.43
2022-08-14T10:51:08.846Z,5.00
2022-08-14T10:53:39.081Z,4.93
2022-08-14T10:56:21.789Z,3.97
2022-08-14T10:59:03.937Z,4.00
2022-08-14T11:01:41.026Z,4.05
2022-08-14T11:04:28.639Z,4.28
2022-08-14T11:06:59.296Z,3.95
2022-08-14T11:09:31.821Z,3.97
2022-08-14T11:12:33.203Z,4.18
2022-08-14T11:14:59.850Z,3.88
2022-08-14T11:17:32.526Z,3.50
2022-08-14T11:20:02.768Z,3.97
2022-08-14T11:22:55.993Z,3.80
2022-08-14T11:25:21.185Z,3.97
2022-08-14T11:27:49.878Z,3.80
2022-08-14T11:30:51.100Z,3.65
2022-08-14T11:33:09.930Z,3.78
2022-08-14T11:35:47.093Z,3.60
2022-08-14T11:38:17.985Z,3.60
2022-08-14T11:40:47.625Z,3.33
2022-08-14T11:43:16.566Z,3.40
2022-08-14T11:45:50.402Z,3.53
2022-08-14T11:49:02.388Z,3.13
2022-08-14T11:51:14.611Z,3.28
2022-08-14T11:53:45.732Z,3.50
2022-08-14T11:56:13.910Z,2.90
2022-08-14T11:58:42.322Z,3.17
2022-08-14T12:01:11.807Z,3.53
2022-08-14T12:03:52.424Z,3.17
2022-08-14T12:06:28.959Z,3.22
2022-08-14T12:09:08.603Z,3.10
2022-08-14T12:11:47.044Z,3.10
2022-08-14T12:14:30.277Z,3.10
2022-08-14T12:17:12.711Z,3.55
2022-08-14T12:19:51.596Z,3.50
2022-08-14T12:22:37.227Z,3.20
2022-08-14T12:25:11.151Z,3.25
2022-08-14T12:27:52.470Z,3.25
2022-08-14T12:33:08.871Z,3.13
2022-08-14T12:35:46.153Z,3.10
2022-08-14T12:38:21.168Z,3.10
2022-08-14T12:40:51.347Z,3.25
2022-08-14T12:43:21.495Z,2.88
2022-08-14T12:45:51.097Z,3.13
2022-08-14T12:48:31.628Z,3.40
2022-08-14T12:51:00.492Z,2.83
2022-08-14T12:53:38.337Z,3.28
2022-08-14T12:56:21.513Z,2.95
2022-08-14T12:58:57.705Z,3.28
2022-08-14T13:01:28.396Z,3.50
2022-08-14T13:04:10.442Z,3.08
2022-08-14T13:06:40.452Z,2.90
2022-08-14T13:09:11.536Z,3.10
2022-08-14T13:11:44.710Z,3.20
2022-08-14T13:14:16.958Z,2.95
2022-08-14T13:16:50.688Z,2.90
2022-08-14T13:19:21.337Z,3.10
2022-08-14T13:22:05.048Z,3.00
2022-08-14T13:24:35.745Z,3.03
2022-08-14T13:27:05.046Z,3.00
2022-08-14T13:29:40.547Z,2.90
2022-08-14T13:32:10.115Z,3.30
2022-08-14T13:34:43.636Z,3.60
2022-08-14T13:37:15.470Z,3.30
2022-08-14T13:39:56.846Z,3.20
2022-08-14T13:42:30.593Z,3.05
2022-08-14T13:45:00.976Z,3.63
2022-08-14T13:47:30.937Z,3.20
2022-08-14T13:50:04.736Z,3.20
2022-08-14T13:52:52.026Z,3.17
2022-08-14T13:55:28.068Z,3.17
2022-08-14T13:58:03.502Z,3.17
2022-08-14T14:00:51.579Z,3.22
2022-08-14T14:03:22.780Z,3.10
2022-08-14T14:05:55.235Z,3.28
2022-08-14T14:08:46.778Z,3.33
2022-08-14T14:11:16.071Z,3.03
2022-08-14T14:16:15.635Z,3.20
2022-08-14T14:18:56.401Z,3.05
2022-08-14T14:21:28.807Z,3.15
2022-08-14T14:26:25.779Z,3.38
2022-08-14T14:28:57.450Z,2.90
2022-08-14T14:34:01.146Z,3.00
2022-08-14T14:36:38.105Z,2.97
2022-08-14T14:39:09.485Z,3.15
2022-08-14T14:41:43.441Z,2.90
2022-08-14T14:44:15.847Z,3.30
2022-08-14T14:46:51.158Z,3.20
2022-08-14T14:49:31.688Z,3.10
2022-08-14T14:52:23.178Z,3.20
2022-08-14T14:54:51.490Z,3.08
2022-08-14T14:57:19.863Z,3.13
2022-08-14T14:59:47.981Z,3.28
2022-08-14T15:02:28.055Z,3.40
2022-08-14T15:04:56.498Z,3.05
2022-08-14T15:07:26.151Z,3.20
2022-08-14T15:09:57.609Z,3.00
2022-08-14T15:12:55.682Z,3.20
2022-08-14T15:15:16.315Z,3.28
2022-08-14T15:17:45.129Z,3.30
2022-08-14T15:20:29.827Z,2.90
2022-08-14T15:23:12.083Z,2.90
2022-08-14T15:25:40.334Z,3.00
2022-08-14T15:28:13.149Z,2.90
2022-08-14T15:30:50.975Z,2.80
2022-08-14T15:34:13.414Z,3.00
2022-08-14T15:36:29.399Z,3.15
2022-08-14T15:38:59.994Z,2.70
2022-08-14T15:41:33.741Z,2.85
2022-08-14T15:46:54.517Z,3.00
2022-08-14T15:49:24.219Z,3.30
2022-08-14T15:51:52.116Z,2.90
2022-08-14T15:54:21.945Z,3.00
2022-08-14T15:56:57.642Z,4.00
2022-08-14T15:59:27.112Z,3.33
2022-08-14T16:01:55.322Z,10.07
2022-08-14T16:04:24.121Z,6.32
2022-08-14T16:06:55.551Z,6.53
2022-08-14T16:11:53.588Z,2.90
2022-08-14T16:14:22.552Z,2.80
2022-08-14T16:17:00.174Z,3.20
2022-08-14T16:19:31.611Z,3.00
2022-08-14T16:22:58.207Z,2.80
2022-08-14T16:24:59.828Z,2.85
2022-08-14T16:27:33.733Z,2.58
2022-08-14T16:30:10.980Z,2.90
2022-08-14T16:32:55.176Z,3.35
2022-08-14T16:35:41.844Z,3.38
2022-08-14T16:38:19.654Z,3.10
2022-08-14T16:41:23.153Z,3.20
2022-08-14T16:43:59.125Z,3.10
2022-08-14T16:46:28.119Z,2.60
2022-08-14T16:48:58.729Z,2.97
2022-08-14T16:51:28.134Z,2.85
2022-08-14T16:53:56.704Z,4.00
2022-08-14T16:56:30.657Z,3.95
2022-08-14T16:59:12.450Z,3.00
2022-08-14T17:01:44.082Z,3.15
2022-08-14T17:04:15.000Z,2.60
2022-08-14T17:06:54.511Z,2.80
2022-08-14T17:09:34.728Z,2.78
2022-08-14T17:12:10.444Z,2.90
2022-08-14T17:15:10.597Z,3.00
2022-08-14T17:20:53.227Z,2.75
2022-08-14T17:23:15.104Z,3.17
2022-08-14T17:28:52.494Z,4.28
2022-08-14T17:31:20.508Z,2.75
2022-08-14T17:33:52.500Z,2.50
2022-08-14T17:36:23.005Z,3.20
2022-08-14T17:41:43.944Z,2.92
2022-08-14T17:44:22.006Z,2.63
2022-08-14T17:47:03.004Z,3.03
2022-08-14T17:49:33.001Z,5.53
2022-08-14T17:52:07.859Z,4.93
2022-08-14T17:54:58.887Z,4.75
2022-08-14T17:57:35.552Z,3.65
2022-08-14T18:00:14.847Z,4.38
2022-08-14T18:02:50.494Z,6.20
2022-08-14T18:05:23.353Z,6.57
2022-08-14T18:08:32.219Z,5.97
2022-08-14T18:10:56.795Z,4.97
2022-08-14T18:13:50.121Z,4.10
2022-08-14T18:16:20.413Z,3.90
2022-08-14T18:18:51.137Z,3.60
2022-08-14T18:21:40.420Z,3.55
2022-08-14T18:24:28.180Z,3.63
2022-08-14T18:27:08.647Z,3.97
2022-08-14T18:29:43.522Z,4.75
2022-08-14T18:32:47.477Z,5.40
2022-08-14T18:35:45.415Z,5.20
2022-08-14T18:38:25.829Z,4.32
2022-08-14T18:41:37.794Z,4.57
2022-08-14T18:44:10.809Z,3.92
2022-08-14T18:47:15.127Z,3.50
2022-08-14T18:50:26.988Z,3.45
2022-08-14T18:52:54.612Z,3.42
2022-08-14T18:55:53.778Z,3.30
2022-08-14T18:58:27.647Z,3.05
2022-08-14T19:01:01.213Z,2.92
2022-08-14T19:03:57.391Z,3.30
2022-08-14T19:06:56.638Z,3.35
2022-08-14T19:09:58.021Z,2.92
2022-08-14T19:12:58.217Z,3.53
2022-08-14T19:15:32.606Z,3.13
2022-08-14T19:18:14.717Z,3.35
2022-08-14T19:20:54.119Z,3.33
2022-08-14T19:23:43.856Z,3.58
2022-08-14T19:26:36.894Z,3.22
2022-08-14T19:29:39.631Z,3.35
2022-08-14T19:32:39.462Z,3.10
2022-08-14T19:35:49.522Z,2.95
2022-08-14T19:38:53.439Z,2.90
2022-08-14T19:41:25.109Z,2.83
2022-08-14T19:44:10.481Z,2.90
2022-08-14T19:47:00.975Z,2.55
2022-08-14T19:50:08.323Z,2.75
2022-08-14T19:52:22.754Z,2.83
2022-08-14T19:54:53.065Z,2.40
2022-08-14T19:57:22.479Z,2.67
2022-08-14T20:00:00.693Z,2.20
2022-08-14T20:02:30.215Z,2.45
2022-08-14T20:05:00.519Z,2.40
2022-08-14T20:07:59.650Z,2.60
2022-08-14T20:11:03.834Z,2.40
2022-08-14T20:13:32.648Z,2.45
2022-08-14T20:16:12.558Z,2.35
2022-08-14T20:18:51.605Z,2.15
2022-08-14T20:21:21.455Z,2.30
2022-08-14T20:23:50.337Z,2.42
2022-08-14T20:26:31.568Z,2.42
2022-08-14T20:29:07.351Z,2.30
2022-08-14T20:31:38.563Z,2.13
2022-08-14T20:34:24.907Z,3.23
2022-08-14T20:37:04.733Z,2.15
2022-08-14T20:39:54.299Z,2.42
2022-08-14T20:42:43.846Z,2.45
2022-08-14T20:45:19.942Z,2.33
2022-08-14T20:48:00.865Z,2.08
2022-08-14T20:50:30.609Z,2.17
2022-08-14T20:53:00.117Z,2.13
2022-08-14T20:55:32.298Z,2.13
2022-08-14T20:58:10.025Z,2.30
2022-08-14T21:01:00.637Z,2.40
2022-08-14T21:03:56.419Z,2.25
2022-08-14T21:06:28.563Z,2.20
2022-08-14T21:09:00.963Z,2.40
2022-08-14T21:11:30.693Z,2.20
2022-08-14T21:14:20.603Z,2.63
2022-08-14T21:16:58.497Z,2.13
2022-08-14T21:19:29.299Z,2.13
2022-08-14T21:21:59.030Z,2.33
2022-08-14T21:24:39.550Z,2.30
2022-08-14T21:27:20.166Z,2.55
2022-08-14T21:29:55.069Z,2.30
2022-08-14T21:32:36.520Z,2.35
2022-08-14T21:35:22.760Z,2.13
2022-08-14T21:37:52.182Z,2.17
2022-08-14T21:40:42.462Z,2.85
2022-08-14T21:43:17.658Z,2.40
2022-08-14T21:45:53.383Z,2.72
2022-08-14T21:48:25.317Z,2.65
2022-08-14T21:51:02.058Z,2.40
2022-08-14T21:53:58.834Z,2.78
2022-08-14T21:56:37.317Z,2.97
2022-08-14T21:59:10.774Z,2.78
2022-08-14T22:02:01.082Z,2.70
2022-08-14T22:04:33.315Z,3.17
2022-08-14T22:07:06.809Z,2.83
2022-08-14T22:09:36.784Z,2.80
2022-08-14T22:12:07.343Z,2.60
2022-08-14T22:14:43.151Z,3.07
2022-08-14T22:17:17.024Z,2.85
2022-08-14T22:19:54.363Z,3.00
2022-08-14T22:22:26.065Z,2.90
2022-08-14T22:24:59.941Z,2.85
2022-08-14T22:27:29.432Z,3.00
2022-08-14T22:29:58.368Z,2.92
2022-08-14T22:32:35.310Z,3.55
2022-08-14T22:35:16.953Z,3.08
2022-08-14T22:37:46.330Z,3.25
2022-08-14T22:41:00.964Z,3.17
2022-08-14T22:43:23.854Z,2.90
2022-08-14T22:45:55.136Z,2.88
2022-08-14T22:48:23.333Z,3.25
2022-08-14T22:50:53.453Z,2.83
2022-08-14T22:53:23.320Z,2.80
2022-08-14T22:55:52.121Z,3.08
2022-08-14T22:58:30.491Z,2.97
2022-08-14T23:01:01.419Z,2.90
2022-08-14T23:03:31.250Z,2.90
2022-08-14T23:06:03.187Z,3.40
2022-08-14T23:08:59.844Z,3.58
2022-08-14T23:11:30.642Z,3.00
2022-08-14T23:14:00.893Z,2.92
2022-08-14T23:16:31.299Z,3.03
2022-08-14T23:18:59.099Z,3.58
2022-08-14T23:21:28.847Z,2.83
2022-08-14T23:23:59.546Z,3.35
2022-08-14T23:26:47.036Z,3.17
2022-08-14T23:29:18.511Z,3.10
2022-08-14T23:31:46.514Z,3.00
2022-08-14T23:34:21.359Z,3.17
2022-08-14T23:36:55.682Z,3.03
2022-08-14T23:39:30.263Z,3.53
2022-08-14T23:42:02.279Z,2.92
2022-08-14T23:44:35.107Z,3.42
2022-08-14T23:47:10.467Z,3.10
2022-08-14T23:50:01.296Z,3.15
2022-08-14T23:52:55.440Z,3.47
2022-08-14T23:55:19.037Z,3.08
2022-08-14T23:57:57.697Z,3.22
